sensor_id;sensor_type;location;lat;lon;timestamp;temperature;humidity
17968;DHT22;9109;48.050;11.696;2022-08-21T03:48:40;16.70;99.90
17968;DHT22;9109;48.050;11.696;2022-08-21T03:52:37;16.70;99.90
17968;DHT22;9109;48.050;11.696;2022-08-21T03:56:16;16.70;99.90
17968;DHT22;9109;48.050;11.696;2022-08-21T04:12:13;16.70;99.90
17968;DHT22;9109;48.050;11.696;2022-08-21T04:22:55;16.50;99.90
17968;DHT22;9109;48.050;11.696;2022-08-21T04:26:46;16.60;99.90
17968;DHT22;9109;48.050;11.696;2022-08-21T04:30:27;16.70;99.90
17968;DHT22;9109;48.050;11.696;2022-08-21T04:34:07;16.60;99.90
17968;DHT22;9109;48.050;11.696;2022-08-21T04:41:50;16.70;99.90
17968;DHT22;9109;48.050;11.696;2022-08-21T05:05:08;16.60;99.90
17968;DHT22;9109;48.050;11.696;2022-08-21T05:08:25;16.60;99.90
17968;DHT22;9109;48.050;11.696;2022-08-21T05:11:52;16.60;99.90
17968;DHT22;9109;48.050;11.696;2022-08-21T05:27:13;16.60;99.90
17968;DHT22;9109;48.050;11.696;2022-08-21T05:30:55;16.60;99.90
17968;DHT22;9109;48.050;11.696;2022-08-21T05:34:22;16.60;99.90
17968;DHT22;9109;48.050;11.696;2022-08-21T05:38:09;16.60;99.90
17968;DHT22;9109;48.050;11.696;2022-08-21T05:53:39;16.70;99.90
17968;DHT22;9109;48.050;11.696;2022-08-21T05:57:05;16.80;99.90
17968;DHT22;9109;48.050;11.696;2022-08-21T06:01:21;16.90;99.90
17968;DHT22;9109;48.050;11.696;2022-08-21T06:04:48;17.10;99.90
17968;DHT22;9109;48.050;11.696;2022-08-21T06:16:40;17.30;99.90
17968;DHT22;9109;48.050;11.696;2022-08-21T06:20:31;17.40;99.90
17968;DHT22;9109;48.050;11.696;2022-08-21T06:24:19;17.60;99.90
17968;DHT22;9109;48.050;11.696;2022-08-21T06:32:16;17.80;99.90
17968;DHT22;9109;48.050;11.696;2022-08-21T06:36:53;17.90;99.90
17968;DHT22;9109;48.050;11.696;2022-08-21T06:39:46;18.00;99.90
17968;DHT22;9109;48.050;11.696;2022-08-21T06:43:20;18.10;99.90
17968;DHT22;9109;48.050;11.696;2022-08-21T06:58:42;18.40;99.90
17968;DHT22;9109;48.050;11.696;2022-08-21T07:01:44;18.40;99.90
17968;DHT22;9109;48.050;11.696;2022-08-21T07:04:46;18.40;99.90
17968;DHT22;9109;48.050;11.696;2022-08-21T07:07:48;18.50;99.90
17968;DHT22;9109;48.050;11.696;2022-08-21T07:10:51;18.50;99.90
17968;DHT22;9109;48.050;11.696;2022-08-21T07:13:55;18.60;99.90
17968;DHT22;9109;48.050;11.696;2022-08-21T07:16:57;18.60;99.90
17968;DHT22;9109;48.050;11.696;2022-08-21T07:19:59;18.70;99.90
17968;DHT22;9109;48.050;11.696;2022-08-21T07:23:04;18.80;99.90
17968;DHT22;9109;48.050;11.696;2022-08-21T07:26:07;18.80;99.90
17968;DHT22;9109;48.050;11.696;2022-08-21T07:29:10;18.90;99.90
17968;DHT22;9109;48.050;11.696;2022-08-21T07:32:12;18.90;99.90
17968;DHT22;9109;48.050;11.696;2022-08-21T07:35:15;18.90;99.90
17968;DHT22;9109;48.050;11.696;2022-08-21T07:38:17;18.90;99.90
17968;DHT22;9109;48.050;11.696;2022-08-21T07:41:21;19.00;99.90
17968;DHT22;9109;48.050;11.696;2022-08-21T07:44:25;19.10;99.90
17968;DHT22;9109;48.050;11.696;2022-08-21T07:47:27;19.10;99.90
17968;DHT22;9109;48.050;11.696;2022-08-21T07:50:29;19.20;99.90
17968;DHT22;9109;48.050;11.696;2022-08-21T07:53:31;19.20;99.90
17968;DHT22;9109;48.050;11.696;2022-08-21T07:56:33;19.30;99.90
17968;DHT22;9109;48.050;11.696;2022-08-21T07:59:37;19.30;99.90
17968;DHT22;9109;48.050;11.696;2022-08-21T08:02:39;19.40;99.90
17968;DHT22;9109;48.050;11.696;2022-08-21T08:05:41;19.50;99.90
17968;DHT22;9109;48.050;11.696;2022-08-21T08:08:43;19.50;99.90
17968;DHT22;9109;48.050;11.696;2022-08-21T08:11:45;19.50;99.90
17968;DHT22;9109;48.050;11.696;2022-08-21T08:14:49;19.50;99.90
17968;DHT22;9109;48.050;11.696;2022-08-21T08:17:51;19.60;99.90
17968;DHT22;9109;48.050;11.696;2022-08-21T08:20:55;19.60;99.90
17968;DHT22;9109;48.050;11.696;2022-08-21T08:23:57;19.70;99.90
17968;DHT22;9109;48.050;11.696;2022-08-21T08:26:59;19.70;99.90
17968;DHT22;9109;48.050;11.696;2022-08-21T08:30:03;19.90;99.90
17968;DHT22;9109;48.050;11.696;2022-08-21T08:33:05;19.90;99.90
17968;DHT22;9109;48.050;11.696;2022-08-21T08:36:12;20.00;99.90
17968;DHT22;9109;48.050;11.696;2022-08-21T08:39:15;20.00;99.90
17968;DHT22;9109;48.050;11.696;2022-08-21T08:42:31;20.10;99.90
17968;DHT22;9109;48.050;11.696;2022-08-21T08:45:38;20.20;99.90
17968;DHT22;9109;48.050;11.696;2022-08-21T08:48:49;20.30;99.90
17968;DHT22;9109;48.050;11.696;2022-08-21T08:51:57;20.40;99.90
17968;DHT22;9109;48.050;11.696;2022-08-21T08:55:05;20.50;99.90
17968;DHT22;9109;48.050;11.696;2022-08-21T08:58:19;20.50;99.90
17968;DHT22;9109;48.050;11.696;2022-08-21T09:01:23;20.60;99.90
17968;DHT22;9109;48.050;11.696;2022-08-21T09:04:27;20.70;99.90
17968;DHT22;9109;48.050;11.696;2022-08-21T09:07:38;20.70;99.90
17968;DHT22;9109;48.050;11.696;2022-08-21T09:10:51;20.80;99.90
17968;DHT22;9109;48.050;11.696;2022-08-21T09:14:03;20.80;99.90
17968;DHT22;9109;48.050;11.696;2022-08-21T09:17:16;20.80;99.90
17968;DHT22;9109;48.050;11.696;2022-08-21T09:20:27;20.80;99.90
17968;DHT22;9109;48.050;11.696;2022-08-21T09:23:40;20.80;99.90
17968;DHT22;9109;48.050;11.696;2022-08-21T09:26:49;20.90;99.90
17968;DHT22;9109;48.050;11.696;2022-08-21T09:29:56;21.10;99.90
17968;DHT22;9109;48.050;11.696;2022-08-21T09:32:59;21.20;99.90
17968;DHT22;9109;48.050;11.696;2022-08-21T09:36:02;21.30;99.90
17968;DHT22;9109;48.050;11.696;2022-08-21T09:39:05;21.30;99.90
17968;DHT22;9109;48.050;11.696;2022-08-21T09:42:09;21.40;99.90
17968;DHT22;9109;48.050;11.696;2022-08-21T09:45:16;21.40;99.90
17968;DHT22;9109;48.050;11.696;2022-08-21T09:48:23;21.40;99.90
17968;DHT22;9109;48.050;11.696;2022-08-21T09:51:27;21.60;99.90
17968;DHT22;9109;48.050;11.696;2022-08-21T09:54:32;21.90;99.90
17968;DHT22;9109;48.050;11.696;2022-08-21T09:57:35;22.10;99.90
17968;DHT22;9109;48.050;11.696;2022-08-21T10:00:39;22.20;99.90
17968;DHT22;9109;48.050;11.696;2022-08-21T10:03:43;22.00;99.90
17968;DHT22;9109;48.050;11.696;2022-08-21T10:06:45;21.80;99.90
17968;DHT22;9109;48.050;11.696;2022-08-21T10:09:58;21.70;99.90
17968;DHT22;9109;48.050;11.696;2022-08-21T10:13:04;21.50;99.90
17968;DHT22;9109;48.050;11.696;2022-08-21T10:16:18;21.40;99.90
17968;DHT22;9109;48.050;11.696;2022-08-21T10:19:32;21.50;99.90
17968;DHT22;9109;48.050;11.696;2022-08-21T10:22:44;21.80;99.90
17968;DHT22;9109;48.050;11.696;2022-08-21T10:25:52;22.00;99.90
17968;DHT22;9109;48.050;11.696;2022-08-21T10:29:03;22.20;99.90
17968;DHT22;9109;48.050;11.696;2022-08-21T10:32:18;22.40;99.90
17968;DHT22;9109;48.050;11.696;2022-08-21T10:35:26;22.20;98.30
17968;DHT22;9109;48.050;11.696;2022-08-21T10:42:25;22.00;99.90
17968;DHT22;9109;48.050;11.696;2022-08-21T10:45:48;21.90;96.60
17968;DHT22;9109;48.050;11.696;2022-08-21T10:48:57;22.00;96.50
17968;DHT22;9109;48.050;11.696;2022-08-21T10:52:16;22.30;97.70
17968;DHT22;9109;48.050;11.696;2022-08-21T10:55:22;22.50;96.50
17968;DHT22;9109;48.050;11.696;2022-08-21T10:58:28;22.70;92.50
17968;DHT22;9109;48.050;11.696;2022-08-21T11:01:34;22.80;95.50
17968;DHT22;9109;48.050;11.696;2022-08-21T11:04:48;22.90;95.10
17968;DHT22;9109;48.050;11.696;2022-08-21T11:07:55;22.70;94.50
17968;DHT22;9109;48.050;11.696;2022-08-21T11:11:02;22.50;93.90
17968;DHT22;9109;48.050;11.696;2022-08-21T11:14:11;22.40;95.10
17968;DHT22;9109;48.050;11.696;2022-08-21T11:17:16;22.30;95.20
17968;DHT22;9109;48.050;11.696;2022-08-21T11:20:26;22.10;97.10
17968;DHT22;9109;48.050;11.696;2022-08-21T11:23:37;22.00;97.90
17968;DHT22;9109;48.050;11.696;2022-08-21T11:26:43;22.10;99.90
17968;DHT22;9109;48.050;11.696;2022-08-21T11:29:48;22.00;99.90
17968;DHT22;9109;48.050;11.696;2022-08-21T11:33:04;22.00;99.90
17968;DHT22;9109;48.050;11.696;2022-08-21T11:36:15;22.10;99.90
17968;DHT22;9109;48.050;11.696;2022-08-21T11:39:26;22.20;99.90
17968;DHT22;9109;48.050;11.696;2022-08-21T11:42:37;22.20;99.90
17968;DHT22;9109;48.050;11.696;2022-08-21T11:45:45;22.40;99.10
17968;DHT22;9109;48.050;11.696;2022-08-21T11:49:00;22.70;96.70
17968;DHT22;9109;48.050;11.696;2022-08-21T11:52:10;23.00;96.40
17968;DHT22;9109;48.050;11.696;2022-08-21T11:55:22;23.00;94.60
17968;DHT22;9109;48.050;11.696;2022-08-21T11:58:27;23.20;91.10
17968;DHT22;9109;48.050;11.696;2022-08-21T12:01:35;23.50;91.60
17968;DHT22;9109;48.050;11.696;2022-08-21T12:04:44;23.70;91.20
17968;DHT22;9109;48.050;11.696;2022-08-21T12:07:46;23.90;85.70
17968;DHT22;9109;48.050;11.696;2022-08-21T12:11:04;23.90;88.10
17968;DHT22;9109;48.050;11.696;2022-08-21T12:14:13;24.10;91.90
17968;DHT22;9109;48.050;11.696;2022-08-21T12:17:18;24.00;87.50
17968;DHT22;9109;48.050;11.696;2022-08-21T12:20:34;23.50;86.70
17968;DHT22;9109;48.050;11.696;2022-08-21T12:23:45;23.20;88.90
17968;DHT22;9109;48.050;11.696;2022-08-21T12:26:51;23.00;90.50
17968;DHT22;9109;48.050;11.696;2022-08-21T12:29:56;22.90;91.30
17968;DHT22;9109;48.050;11.696;2022-08-21T12:33:02;22.70;91.30
17968;DHT22;9109;48.050;11.696;2022-08-21T12:36:07;22.60;90.90
17968;DHT22;9109;48.050;11.696;2022-08-21T12:39:15;22.60;91.10
17968;DHT22;9109;48.050;11.696;2022-08-21T12:42:26;22.80;90.90
17968;DHT22;9109;48.050;11.696;2022-08-21T12:45:33;23.10;87.60
17968;DHT22;9109;48.050;11.696;2022-08-21T12:48:41;23.20;89.30
17968;DHT22;9109;48.050;11.696;2022-08-21T12:51:51;23.50;85.70
17968;DHT22;9109;48.050;11.696;2022-08-21T12:54:54;23.70;84.80
17968;DHT22;9109;48.050;11.696;2022-08-21T12:57:58;23.70;78.50
17968;DHT22;9109;48.050;11.696;2022-08-21T13:01:03;23.60;81.00
17968;DHT22;9109;48.050;11.696;2022-08-21T13:04:08;23.60;87.40
17968;DHT22;9109;48.050;11.696;2022-08-21T13:07:12;23.60;86.70
17968;DHT22;9109;48.050;11.696;2022-08-21T13:10:19;23.30;83.10
17968;DHT22;9109;48.050;11.696;2022-08-21T13:13:25;23.10;87.20
17968;DHT22;9109;48.050;11.696;2022-08-21T13:16:29;23.00;89.60
17968;DHT22;9109;48.050;11.696;2022-08-21T13:19:32;22.90;90.90
17968;DHT22;9109;48.050;11.696;2022-08-21T13:22:40;22.70;91.60
17968;DHT22;9109;48.050;11.696;2022-08-21T13:25:42;22.60;91.60
17968;DHT22;9109;48.050;11.696;2022-08-21T13:28:47;22.60;91.40
17968;DHT22;9109;48.050;11.696;2022-08-21T13:31:52;22.60;91.40
17968;DHT22;9109;48.050;11.696;2022-08-21T13:34:54;22.60;91.30
17968;DHT22;9109;48.050;11.696;2022-08-21T13:37:59;22.80;91.10
17968;DHT22;9109;48.050;11.696;2022-08-21T13:41:06;23.10;91.00
17968;DHT22;9109;48.050;11.696;2022-08-21T13:44:17;23.20;85.20
17968;DHT22;9109;48.050;11.696;2022-08-21T13:47:19;23.40;83.50
17968;DHT22;9109;48.050;11.696;2022-08-21T13:50:24;23.30;82.00
17968;DHT22;9109;48.050;11.696;2022-08-21T13:53:29;23.40;85.10
17968;DHT22;9109;48.050;11.696;2022-08-21T13:56:33;23.20;80.60
17968;DHT22;9109;48.050;11.696;2022-08-21T13:59:43;23.40;84.10
17968;DHT22;9109;48.050;11.696;2022-08-21T14:02:48;23.60;85.20
17968;DHT22;9109;48.050;11.696;2022-08-21T14:05:51;23.70;82.80
17968;DHT22;9109;48.050;11.696;2022-08-21T14:08:56;23.80;86.70
17968;DHT22;9109;48.050;11.696;2022-08-21T14:12:02;23.90;83.90
17968;DHT22;9109;48.050;11.696;2022-08-21T14:15:07;23.90;84.00
17968;DHT22;9109;48.050;11.696;2022-08-21T14:18:16;23.70;82.10
17968;DHT22;9109;48.050;11.696;2022-08-21T14:21:32;23.70;81.60
17968;DHT22;9109;48.050;11.696;2022-08-21T14:24:39;23.60;81.30
17968;DHT22;9109;48.050;11.696;2022-08-21T14:27:51;23.80;84.40
17968;DHT22;9109;48.050;11.696;2022-08-21T14:30:55;23.90;81.00
17968;DHT22;9109;48.050;11.696;2022-08-21T14:33:58;23.90;82.40
17968;DHT22;9109;48.050;11.696;2022-08-21T14:37:00;24.00;80.10
17968;DHT22;9109;48.050;11.696;2022-08-21T14:40:03;24.10;80.40
17968;DHT22;9109;48.050;11.696;2022-08-21T14:43:06;24.30;81.80
17968;DHT22;9109;48.050;11.696;2022-08-21T14:46:11;24.40;81.90
17968;DHT22;9109;48.050;11.696;2022-08-21T14:49:13;24.40;77.10
17968;DHT22;9109;48.050;11.696;2022-08-21T14:52:16;24.40;80.70
17968;DHT22;9109;48.050;11.696;2022-08-21T14:55:19;24.30;76.50
17968;DHT22;9109;48.050;11.696;2022-08-21T14:58:21;24.30;79.10
17968;DHT22;9109;48.050;11.696;2022-08-21T15:01:26;24.20;78.40
17968;DHT22;9109;48.050;11.696;2022-08-21T15:04:28;24.30;81.10
17968;DHT22;9109;48.050;11.696;2022-08-21T15:07:30;24.20;79.30
17968;DHT22;9109;48.050;11.696;2022-08-21T15:10:33;24.30;80.10
17968;DHT22;9109;48.050;11.696;2022-08-21T15:13:36;24.40;78.90
17968;DHT22;9109;48.050;11.696;2022-08-21T15:16:39;24.40;77.60
17968;DHT22;9109;48.050;11.696;2022-08-21T15:19:42;24.50;77.40
17968;DHT22;9109;48.050;11.696;2022-08-21T15:22:44;24.50;76.80
17968;DHT22;9109;48.050;11.696;2022-08-21T15:25:47;24.30;77.10
17968;DHT22;9109;48.050;11.696;2022-08-21T15:28:50;24.10;76.30
17968;DHT22;9109;48.050;11.696;2022-08-21T15:31:56;23.90;77.20
17968;DHT22;9109;48.050;11.696;2022-08-21T15:34:58;23.80;78.90
17968;DHT22;9109;48.050;11.696;2022-08-21T15:38:00;23.90;80.70
17968;DHT22;9109;48.050;11.696;2022-08-21T15:41:03;24.00;78.90
17968;DHT22;9109;48.050;11.696;2022-08-21T15:44:05;24.10;77.10
17968;DHT22;9109;48.050;11.696;2022-08-21T15:47:12;24.10;78.30
17968;DHT22;9109;48.050;11.696;2022-08-21T15:50:14;24.20;77.20
17968;DHT22;9109;48.050;11.696;2022-08-21T15:53:17;24.10;76.20
17968;DHT22;9109;48.050;11.696;2022-08-21T15:56:21;23.80;75.50
17968;DHT22;9109;48.050;11.696;2022-08-21T15:59:24;23.60;78.40
17968;DHT22;9109;48.050;11.696;2022-08-21T16:02:30;23.50;79.40
17968;DHT22;9109;48.050;11.696;2022-08-21T16:05:33;23.50;78.70
17968;DHT22;9109;48.050;11.696;2022-08-21T16:08:35;23.40;77.70
17968;DHT22;9109;48.050;11.696;2022-08-21T16:11:38;23.30;80.30
17968;DHT22;9109;48.050;11.696;2022-08-21T16:14:41;23.20;78.40
17968;DHT22;9109;48.050;11.696;2022-08-21T16:17:46;23.20;77.60
17968;DHT22;9109;48.050;11.696;2022-08-21T16:20:49;23.20;77.00
17968;DHT22;9109;48.050;11.696;2022-08-21T16:23:51;23.30;78.90
17968;DHT22;9109;48.050;11.696;2022-08-21T16:26:53;23.30;75.10
17968;DHT22;9109;48.050;11.696;2022-08-21T16:29:55;23.20;76.60
17968;DHT22;9109;48.050;11.696;2022-08-21T16:32:59;23.10;77.90
17968;DHT22;9109;48.050;11.696;2022-08-21T16:36:01;23.10;77.50
17968;DHT22;9109;48.050;11.696;2022-08-21T16:39:03;23.20;75.90
17968;DHT22;9109;48.050;11.696;2022-08-21T16:42:05;23.10;75.30
17968;DHT22;9109;48.050;11.696;2022-08-21T16:45:09;23.10;74.70
17968;DHT22;9109;48.050;11.696;2022-08-21T16:48:12;23.00;75.20
17968;DHT22;9109;48.050;11.696;2022-08-21T16:51:15;23.00;74.50
17968;DHT22;9109;48.050;11.696;2022-08-21T16:54:17;23.00;75.00
17968;DHT22;9109;48.050;11.696;2022-08-21T16:57:19;23.00;77.00
17968;DHT22;9109;48.050;11.696;2022-08-21T17:00:21;23.00;75.90
17968;DHT22;9109;48.050;11.696;2022-08-21T17:03:28;22.90;75.20
17968;DHT22;9109;48.050;11.696;2022-08-21T17:06:31;22.90;74.20
17968;DHT22;9109;48.050;11.696;2022-08-21T17:09:33;22.90;74.40
17968;DHT22;9109;48.050;11.696;2022-08-21T17:12:35;22.70;73.40
17968;DHT22;9109;48.050;11.696;2022-08-21T17:15:38;22.60;72.80
17968;DHT22;9109;48.050;11.696;2022-08-21T17:18:41;22.60;74.70
17968;DHT22;9109;48.050;11.696;2022-08-21T17:21:44;22.50;74.70
17968;DHT22;9109;48.050;11.696;2022-08-21T17:24:46;22.50;74.00
17968;DHT22;9109;48.050;11.696;2022-08-21T17:27:48;22.40;74.50
17968;DHT22;9109;48.050;11.696;2022-08-21T17:30:52;22.40;77.10
17968;DHT22;9109;48.050;11.696;2022-08-21T17:33:56;22.30;78.20
17968;DHT22;9109;48.050;11.696;2022-08-21T17:36:58;22.20;78.20
17968;DHT22;9109;48.050;11.696;2022-08-21T17:40:00;22.10;80.70
17968;DHT22;9109;48.050;11.696;2022-08-21T17:43:06;22.10;80.80
17968;DHT22;9109;48.050;11.696;2022-08-21T17:46:11;22.00;82.20
17968;DHT22;9109;48.050;11.696;2022-08-21T17:49:15;21.90;83.50
17968;DHT22;9109;48.050;11.696;2022-08-21T17:52:19;21.90;85.00
17968;DHT22;9109;48.050;11.696;2022-08-21T17:55:25;21.90;86.10
17968;DHT22;9109;48.050;11.696;2022-08-21T17:58:32;21.80;86.60
17968;DHT22;9109;48.050;11.696;2022-08-21T18:01:37;21.80;87.30
17968;DHT22;9109;48.050;11.696;2022-08-21T18:04:41;21.70;87.70
17968;DHT22;9109;48.050;11.696;2022-08-21T18:07:43;21.60;87.90
17968;DHT22;9109;48.050;11.696;2022-08-21T18:10:47;21.60;88.00
17968;DHT22;9109;48.050;11.696;2022-08-21T18:13:54;21.50;89.00
17968;DHT22;9109;48.050;11.696;2022-08-21T18:17:00;21.50;88.90
17968;DHT22;9109;48.050;11.696;2022-08-21T18:20:05;21.40;89.30
17968;DHT22;9109;48.050;11.696;2022-08-21T18:23:07;21.50;90.60
17968;DHT22;9109;48.050;11.696;2022-08-21T18:26:10;21.50;90.30
17968;DHT22;9109;48.050;11.696;2022-08-21T18:29:18;21.50;90.30
17968;DHT22;9109;48.050;11.696;2022-08-21T18:32:23;21.40;90.20
17968;DHT22;9109;48.050;11.696;2022-08-21T18:35:27;21.40;90.60
17968;DHT22;9109;48.050;11.696;2022-08-21T18:38:30;21.30;91.40
17968;DHT22;9109;48.050;11.696;2022-08-21T18:41:32;21.20;91.80
17968;DHT22;9109;48.050;11.696;2022-08-21T18:44:34;21.20;92.20
17968;DHT22;9109;48.050;11.696;2022-08-21T18:47:40;21.10;92.50
17968;DHT22;9109;48.050;11.696;2022-08-21T18:50:45;21.10;92.70
17968;DHT22;9109;48.050;11.696;2022-08-21T18:54:00;20.90;92.80
17968;DHT22;9109;48.050;11.696;2022-08-21T18:57:02;20.80;93.30
17968;DHT22;9109;48.050;11.696;2022-08-21T19:00:06;20.80;93.60
17968;DHT22;9109;48.050;11.696;2022-08-21T19:03:11;20.70;93.80
17968;DHT22;9109;48.050;11.696;2022-08-21T19:06:14;20.70;94.00
17968;DHT22;9109;48.050;11.696;2022-08-21T19:09:16;20.70;94.50
17968;DHT22;9109;48.050;11.696;2022-08-21T19:12:23;20.60;94.60
17968;DHT22;9109;48.050;11.696;2022-08-21T19:15:25;20.60;95.00
17968;DHT22;9109;48.050;11.696;2022-08-21T19:18:29;20.50;95.20
17968;DHT22;9109;48.050;11.696;2022-08-21T19:21:33;20.50;95.70
17968;DHT22;9109;48.050;11.696;2022-08-21T19:24:35;20.40;96.10
17968;DHT22;9109;48.050;11.696;2022-08-21T19:27:37;20.40;96.00
